Time;durP1;ratioP1;P1;durP2;ratioP2;P2;SDS_P1;SDS_P2;PMS_P1;PMS_P2;Temp;Humidity;BMP_temperature;BMP_pressure;BME280_temperature;BME280_humidity;BME280_pressure;Samples;Min_cycle;Max_cycle;Signal;HPM_P1;HPM_P2
2022/12/17 13:06:52;;;;;;;10.10;9.80;;;0.10;99.90;;;;;;5061482;28;20223;-84
2022/12/17 13:09:54;;;;;;;10.00;9.70;;;0.10;99.90;;;;;;5064253;28;20227;-87
2022/12/17 13:12:31;;;;;;;9.80;9.50;;;0.00;99.90;;;;;;5051093;28;20297;-86
2022/12/17 13:15:27;;;;;;;9.70;9.40;;;-0.10;99.90;;;;;;5039747;28;20243;-85
2022/12/17 13:18:07;;;;;;;9.60;9.30;;;-0.20;99.90;;;;;;5044143;28;20279;-86
2022/12/17 13:20:46;;;;;;;9.77;9.47;;;-0.20;99.90;;;;;;5031549;28;20262;-85
2022/12/17 13:23:41;;;;;;;9.63;9.33;;;-0.20;99.90;;;;;;5026204;28;20263;-84
2022/12/17 13:26:19;;;;;;;9.40;9.10;;;-0.20;99.90;;;;;;5026349;28;20275;-87
2022/12/17 13:29:06;;;;;;;9.70;9.40;;;-0.10;99.90;;;;;;5026328;28;20238;-87
2022/12/17 13:32:10;;;;;;;9.80;9.50;;;-0.10;99.90;;;;;;5029986;28;20223;-84
2022/12/17 13:34:57;;;;;;;9.85;9.55;;;0.10;99.90;;;;;;5026923;28;20435;-84
2022/12/17 13:37:43;;;;;;;10.10;9.80;;;0.30;99.90;;;;;;5036706;28;20242;-82
2022/12/17 13:40:39;;;;;;;10.20;9.90;;;0.50;99.90;;;;;;5047027;28;20669;-83
2022/12/17 13:43:19;;;;;;;9.90;9.60;;;0.60;99.90;;;;;;5046717;28;20223;-84
2022/12/17 13:45:56;;;;;;;9.90;9.60;;;0.60;99.90;;;;;;5046462;28;20219;-82
2022/12/17 13:48:26;;;;;;;9.77;9.47;;;0.70;99.90;;;;;;5045978;28;20238;-82
2022/12/17 13:50:58;;;;;;;9.97;9.67;;;0.80;99.90;;;;;;5045834;28;21036;-82
2022/12/17 13:53:33;;;;;;;9.80;9.50;;;0.90;99.90;;;;;;5045493;28;20231;-83
2022/12/17 13:59:29;;;;;;;9.63;9.33;;;1.30;99.90;;;;;;5041752;28;20223;-82
2022/12/17 14:01:56;;;;;;;9.90;9.60;;;1.50;99.90;;;;;;5045569;28;20251;-83
2022/12/17 14:04:34;;;;;;;9.70;9.40;;;1.60;99.90;;;;;;5046136;28;20238;-85
2022/12/17 14:07:10;;;;;;;9.80;9.50;;;1.70;99.90;;;;;;5046153;28;20290;-84
2022/12/17 14:10:00;;;;;;;9.87;9.57;;;1.90;99.90;;;;;;5046458;28;20310;-83
2022/12/17 14:12:28;;;;;;;9.93;9.63;;;2.20;99.90;;;;;;5046401;28;20239;-82
2022/12/17 14:14:59;;;;;;;9.83;9.53;;;2.30;99.90;;;;;;5039288;28;20297;-84
2022/12/17 14:17:47;;;;;;;10.20;9.90;;;2.60;99.90;;;;;;5053544;28;20223;-83
2022/12/17 14:20:32;;;;;;;10.10;9.80;;;2.80;99.90;;;;;;5045284;28;20311;-83
2022/12/17 14:23:09;;;;;;;9.87;9.57;;;3.00;99.90;;;;;;5042478;28;20286;-84
2022/12/17 14:25:49;;;;;;;10.00;9.70;;;3.30;99.90;;;;;;5046427;28;20235;-84
2022/12/17 14:28:26;;;;;;;9.83;9.53;;;3.40;99.90;;;;;;5046322;28;20242;-82
2022/12/17 14:31:05;;;;;;;9.90;9.60;;;3.60;99.90;;;;;;5046965;28;20223;-83
2022/12/17 14:33:34;;;;;;;9.80;9.50;;;3.70;99.90;;;;;;5046958;28;20247;-82
2022/12/17 14:36:15;;;;;;;9.50;9.20;;;3.70;99.90;;;;;;5047834;28;20235;-83
2022/12/17 14:38:53;;;;;;;10.00;9.70;;;4.00;99.90;;;;;;5047416;28;20235;-83
2022/12/17 14:44:33;;;;;;;9.90;9.60;;;4.00;99.90;;;;;;4968240;28;20289;-82
2022/12/17 14:47:20;;;;;;;10.00;9.70;;;3.90;99.90;;;;;;4967381;28;20297;-85
2022/12/17 14:49:58;;;;;;;9.70;9.40;;;3.70;99.90;;;;;;5017810;28;20243;-83
2022/12/17 14:52:46;;;;;;;9.50;9.20;;;3.30;99.90;;;;;;5045874;28;20226;-83
2022/12/17 14:55:41;;;;;;;9.70;9.40;;;2.80;99.90;;;;;;5046844;28;20243;-83
2022/12/17 14:58:19;;;;;;;9.97;9.67;;;2.50;99.90;;;;;;5031714;28;20271;-81
2022/12/17 15:00:51;;;;;;;9.90;9.60;;;2.00;99.90;;;;;;5043711;28;20415;-82
2022/12/17 15:03:28;;;;;;;9.87;9.57;;;1.80;99.90;;;;;;5043010;28;20287;-83
2022/12/17 15:06:05;;;;;;;9.60;9.30;;;1.70;99.90;;;;;;5042041;28;20222;-81
2022/12/17 15:08:43;;;;;;;10.00;9.70;;;1.60;99.90;;;;;;5046644;28;20289;-83
2022/12/17 15:11:14;;;;;;;9.77;9.47;;;1.40;99.90;;;;;;5046697;28;20242;-84
2022/12/17 15:13:45;;;;;;;9.77;9.47;;;1.20;99.90;;;;;;5046980;28;20302;-84
2022/12/17 15:16:14;;;;;;;9.73;9.43;;;0.90;99.90;;;;;;5047525;28;20228;-84
2022/12/17 15:18:42;;;;;;;9.73;9.43;;;0.70;99.90;;;;;;5039210;28;20227;-83
2022/12/17 15:21:29;;;;;;;9.63;9.33;;;0.60;99.90;;;;;;5034105;28;20262;-83
2022/12/17 15:24:00;;;;;;;9.80;9.50;;;0.30;99.90;;;;;;5026324;28;20228;-83
2022/12/17 15:26:36;;;;;;;9.80;9.50;;;0.20;99.90;;;;;;5026379;28;20259;-84
2022/12/17 15:29:14;;;;;;;9.70;9.40;;;0.00;99.90;;;;;;5027059;28;20515;-83
2022/12/17 15:31:44;;;;;;;9.70;9.40;;;-0.10;99.90;;;;;;5029044;28;20228;-84
2022/12/17 15:34:14;;;;;;;9.83;9.53;;;-0.40;99.90;;;;;;5029495;28;20246;-83
2022/12/17 15:36:43;;;;;;;9.73;9.43;;;-0.60;99.90;;;;;;5033654;28;20285;-83
2022/12/17 15:39:12;;;;;;;9.80;9.50;;;-0.70;99.90;;;;;;5026405;28;20243;-83
2022/12/17 15:47:15;;;;;;;9.70;9.40;;;-1.00;99.90;;;;;;5024479;28;20216;-82
2022/12/17 15:49:45;;;;;;;9.53;9.23;;;-1.20;99.90;;;;;;5027338;28;20239;-84
2022/12/17 15:52:16;;;;;;;9.50;9.20;;;-1.30;99.90;;;;;;5027307;28;20241;-81
2022/12/17 15:54:45;;;;;;;9.47;9.17;;;-1.40;99.90;;;;;;5026996;28;20230;-82
2022/12/17 15:57:17;;;;;;;9.50;9.20;;;-1.60;99.90;;;;;;5027700;28;20239;-81
2022/12/17 15:59:47;;;;;;;9.63;9.33;;;-1.60;99.90;;;;;;5023233;28;20241;-81
2022/12/17 16:02:15;;;;;;;9.53;9.23;;;-1.70;99.90;;;;;;5025517;28;20248;-81
2022/12/17 16:04:44;;;;;;;9.50;9.20;;;-1.70;99.90;;;;;;5023968;28;20244;-81
2022/12/17 16:07:12;;;;;;;9.60;9.30;;;-1.80;99.90;;;;;;5023581;28;20305;-82
2022/12/17 16:09:42;;;;;;;9.40;9.10;;;-1.90;99.90;;;;;;5024369;28;20255;-81
2022/12/17 16:12:13;;;;;;;9.13;8.83;;;-2.00;99.90;;;;;;5037811;28;20251;-83
2022/12/17 16:14:41;;;;;;;9.13;8.83;;;-2.10;99.90;;;;;;5039569;28;20237;-86
2022/12/17 16:17:19;;;;;;;9.20;8.90;;;-2.30;99.90;;;;;;5045021;28;20282;-85
2022/12/17 16:19:48;;;;;;;9.13;8.83;;;-2.40;99.90;;;;;;5033949;28;20226;-83
2022/12/17 16:22:19;;;;;;;9.20;8.90;;;-2.50;99.90;;;;;;5025774;28;20359;-83
2022/12/17 16:24:47;;;;;;;9.17;8.87;;;-2.50;99.90;;;;;;5026597;28;20259;-85
2022/12/17 16:27:17;;;;;;;9.20;8.90;;;-2.60;99.90;;;;;;5033736;28;20215;-84
2022/12/17 16:29:46;;;;;;;9.10;8.80;;;-2.60;99.90;;;;;;5046738;28;20215;-84
2022/12/17 16:32:18;;;;;;;9.13;8.83;;;-2.60;99.90;;;;;;5051401;28;20236;-83
2022/12/17 16:34:46;;;;;;;9.33;9.03;;;-2.70;99.90;;;;;;5043380;28;20236;-82
2022/12/17 16:37:17;;;;;;;9.60;9.30;;;-2.80;99.90;;;;;;5042629;28;20235;-82
2022/12/17 16:39:45;;;;;;;9.23;8.93;;;-2.80;99.90;;;;;;5036241;28;20295;-82
2022/12/17 16:42:14;;;;;;;9.03;8.73;;;-2.90;99.90;;;;;;5044474;28;20288;-83
2022/12/17 16:44:44;;;;;;;9.37;9.07;;;-2.90;99.90;;;;;;5044451;28;20241;-83
2022/12/17 16:47:13;;;;;;;9.30;9.00;;;-3.00;99.90;;;;;;5044499;28;20318;-82
2022/12/17 16:49:44;;;;;;;9.30;9.00;;;-3.10;99.90;;;;;;5044851;28;20236;-83
2022/12/17 16:52:12;;;;;;;9.40;9.10;;;-3.30;99.90;;;;;;5045036;28;20330;-83
2022/12/17 16:54:41;;;;;;;9.50;9.20;;;-3.30;99.90;;;;;;5043464;28;20236;-82
2022/12/17 16:57:11;;;;;;;9.60;9.30;;;-3.40;99.90;;;;;;5043585;28;20295;-83
2022/12/17 16:59:41;;;;;;;9.40;9.10;;;-3.50;99.90;;;;;;5042962;28;20231;-83
2022/12/17 17:02:19;;;;;;;9.40;9.10;;;-3.60;99.90;;;;;;5044208;28;20231;-81
2022/12/17 17:04:50;;;;;;;9.20;8.90;;;-3.70;99.90;;;;;;5043109;28;20239;-82
2022/12/17 17:07:18;;;;;;;9.17;8.87;;;-3.80;99.90;;;;;;5044555;28;20224;-82
2022/12/17 17:09:46;;;;;;;9.33;9.03;;;-3.90;99.90;;;;;;5043577;28;20237;-83
2022/12/17 17:12:15;;;;;;;9.33;9.03;;;-4.00;99.90;;;;;;5043583;28;20252;-82
2022/12/17 17:14:45;;;;;;;9.40;9.10;;;-4.10;99.90;;;;;;5044958;28;20263;-82
2022/12/17 17:17:15;;;;;;;9.33;9.03;;;-4.20;99.90;;;;;;5043402;28;20230;-83
2022/12/17 17:19:55;;;;;;;9.67;9.37;;;-4.30;99.90;;;;;;5046882;28;20227;-83
2022/12/17 17:22:23;;;;;;;9.60;9.30;;;-4.30;99.90;;;;;;5044405;28;20235;-82
2022/12/17 17:24:53;;;;;;;9.40;9.10;;;-4.40;99.90;;;;;;5044179;28;20235;-83
2022/12/17 17:27:21;;;;;;;9.57;9.27;;;-4.50;99.90;;;;;;5043296;28;20232;-82
2022/12/17 17:29:50;;;;;;;9.43;9.13;;;-4.60;99.90;;;;;;5043980;28;20286;-82
2022/12/17 17:32:20;;;;;;;9.33;9.03;;;-4.60;99.90;;;;;;5044192;28;20242;-82
2022/12/17 17:34:51;;;;;;;9.60;9.30;;;-4.60;99.90;;;;;;5043309;28;20290;-82
2022/12/17 17:37:29;;;;;;;9.40;9.10;;;-4.70;99.90;;;;;;5043258;28;20261;-82
2022/12/17 17:39:57;;;;;;;9.30;9.00;;;-4.80;99.90;;;;;;5043707;28;20223;-82
2022/12/17 17:42:26;;;;;;;9.47;9.17;;;-4.90;99.90;;;;;;5046764;28;20247;-82
2022/12/17 17:44:57;;;;;;;9.00;8.70;;;-4.90;99.90;;;;;;5046150;28;20263;-82
2022/12/17 17:47:28;;;;;;;9.40;9.10;;;-5.00;99.90;;;;;;5046434;28;20232;-82
2022/12/17 17:49:58;;;;;;;9.50;9.20;;;-5.10;99.90;;;;;;5046510;28;20306;-84
2022/12/17 17:52:25;;;;;;;9.70;9.40;;;-5.20;99.90;;;;;;5046511;28;20269;-82
2022/12/17 17:54:55;;;;;;;9.50;9.20;;;-5.40;99.90;;;;;;5046035;28;20262;-83
2022/12/17 17:57:25;;;;;;;9.67;9.37;;;-5.60;99.90;;;;;;5048366;28;20233;-82
2022/12/17 17:59:55;;;;;;;9.40;9.10;;;-5.70;99.90;;;;;;5049094;28;20258;-82
2022/12/17 18:02:24;;;;;;;9.67;9.37;;;-5.80;99.90;;;;;;5046752;28;20270;-82
2022/12/17 18:04:53;;;;;;;9.70;9.40;;;-5.90;99.90;;;;;;5046239;28;20247;-82
2022/12/17 18:07:25;;;;;;;9.70;9.40;;;-6.00;99.90;;;;;;5047181;28;20241;-82
2022/12/17 18:10:01;;;;;;;9.67;9.37;;;-6.10;99.90;;;;;;5046457;28;20238;-83
2022/12/17 18:15:20;;;;;;;9.73;9.43;;;-6.30;99.90;;;;;;5046492;28;20229;-82
2022/12/17 18:17:58;;;;;;;9.90;9.60;;;-6.40;99.90;;;;;;5048996;28;20220;-82
2022/12/17 18:20:26;;;;;;;9.67;9.37;;;-6.50;99.90;;;;;;5047775;28;20254;-82
2022/12/17 18:22:57;;;;;;;9.70;9.40;;;-6.70;99.90;;;;;;5048119;28;20234;-82
2022/12/17 18:25:25;;;;;;;9.67;9.37;;;-6.70;99.90;;;;;;5047117;28;20244;-82
2022/12/17 18:27:53;;;;;;;9.70;9.40;;;-6.80;99.90;;;;;;5047254;28;20229;-82
2022/12/17 18:30:23;;;;;;;9.63;9.33;;;-6.80;99.90;;;;;;5047229;28;20228;-82
2022/12/17 18:32:52;;;;;;;9.53;9.23;;;-6.90;99.90;;;;;;5045157;28;20276;-82
2022/12/17 18:35:22;;;;;;;9.80;9.50;;;-6.90;99.90;;;;;;5049357;28;20228;-81
2022/12/17 18:37:51;;;;;;;9.30;9.00;;;-6.90;99.90;;;;;;5058474;28;20213;-82
2022/12/17 18:40:23;;;;;;;9.80;9.50;;;-6.90;99.90;;;;;;5050829;28;20247;-82
2022/12/17 18:45:37;;;;;;;10.00;9.70;;;-7.00;99.90;;;;;;5037547;28;20257;-82
2022/12/17 18:48:09;;;;;;;9.63;9.33;;;-7.10;99.90;;;;;;5047916;28;20258;-82
2022/12/17 18:50:37;;;;;;;9.63;9.33;;;-7.20;99.90;;;;;;5048589;28;20224;-82
2022/12/17 18:53:05;;;;;;;10.00;9.70;;;-7.20;99.90;;;;;;5051052;28;20228;-81
2022/12/17 18:55:44;;;;;;;10.00;9.70;;;-7.30;99.90;;;;;;5053189;28;20252;-82
2022/12/17 18:58:13;;;;;;;9.43;9.13;;;-7.30;99.90;;;;;;5046281;28;20230;-82
2022/12/17 19:00:42;;;;;;;9.60;9.30;;;-7.30;99.90;;;;;;5045915;28;20235;-83
2022/12/17 19:03:13;;;;;;;9.63;9.33;;;-7.20;99.90;;;;;;5046616;28;20304;-82
2022/12/17 19:05:42;;;;;;;9.40;9.10;;;-7.20;99.90;;;;;;5072955;22;20236;-83
2022/12/17 19:08:12;;;;;;;9.50;9.20;;;-7.20;99.90;;;;;;5063469;28;20225;-84
2022/12/17 19:10:43;;;;;;;9.50;9.20;;;-7.20;99.90;;;;;;5062850;28;20239;-83
2022/12/17 19:13:11;;;;;;;9.47;9.17;;;-7.20;99.90;;;;;;5062725;28;20233;-84
2022/12/17 19:15:39;;;;;;;9.60;9.30;;;-7.30;99.90;;;;;;5062719;28;20293;-83
2022/12/17 19:18:08;;;;;;;9.00;8.70;;;-7.40;99.90;;;;;;5064113;28;20223;-83
2022/12/17 19:20:37;;;;;;;9.30;9.00;;;-7.50;99.90;;;;;;5061407;28;20230;-81
2022/12/17 19:23:08;;;;;;;9.67;9.37;;;-7.60;99.90;;;;;;5061757;28;20233;-83
2022/12/17 19:25:37;;;;;;;10.00;9.70;;;-7.70;99.90;;;;;;5062326;28;20258;-83
2022/12/17 19:28:16;;;;;;;9.70;9.40;;;-7.70;99.90;;;;;;5062246;28;20239;-81
2022/12/17 19:30:43;;;;;;;9.50;9.20;;;-7.80;99.90;;;;;;5062606;28;20281;-82
2022/12/17 19:33:14;;;;;;;9.90;9.60;;;-7.90;99.90;;;;;;5062422;28;20231;-82
2022/12/17 19:35:44;;;;;;;10.00;9.70;;;-7.90;99.90;;;;;;5062115;28;20325;-82
2022/12/17 19:38:15;;;;;;;9.90;9.60;;;-7.80;99.90;;;;;;5062984;28;21040;-83
2022/12/17 19:40:42;;;;;;;9.70;9.40;;;-7.80;99.90;;;;;;5062647;28;20327;-83
2022/12/17 19:43:13;;;;;;;9.80;9.50;;;-7.90;99.90;;;;;;5061632;28;20226;-83
2022/12/17 19:45:42;;;;;;;9.70;9.40;;;-7.90;99.90;;;;;;5062080;28;20389;-83
2022/12/17 19:48:13;;;;;;;9.97;9.67;;;-7.90;99.90;;;;;;5062702;28;20254;-83
2022/12/17 19:50:41;;;;;;;9.77;9.47;;;-8.00;99.90;;;;;;5062540;28;20633;-83
2022/12/17 19:53:09;;;;;;;9.77;9.47;;;-8.00;99.90;;;;;;5062577;28;20234;-84
2022/12/17 19:55:39;;;;;;;9.97;9.67;;;-8.10;99.90;;;;;;5061419;28;20266;-83
2022/12/17 19:58:20;;;;;;;9.57;9.27;;;-8.10;99.90;;;;;;5054748;28;20701;-83
2022/12/17 20:00:48;;;;;;;9.37;9.07;;;-8.20;99.90;;;;;;5047342;28;20282;-83
2022/12/17 20:03:18;;;;;;;9.57;9.27;;;-8.20;99.90;;;;;;5059164;28;20262;-82
2022/12/17 20:05:46;;;;;;;9.70;9.40;;;-8.30;99.90;;;;;;5048970;28;20232;-82
2022/12/17 20:08:17;;;;;;;9.50;9.20;;;-8.30;99.90;;;;;;5041892;28;20327;-82
2022/12/17 20:10:45;;;;;;;9.40;9.10;;;-8.30;99.90;;;;;;5043217;28;20223;-82
2022/12/17 20:13:19;;;;;;;9.70;9.40;;;-8.30;99.90;;;;;;5042766;28;20247;-83
2022/12/17 20:15:46;;;;;;;9.47;9.17;;;-8.40;99.90;;;;;;5053943;28;20262;-83
2022/12/17 20:18:14;;;;;;;9.50;9.20;;;-8.30;99.90;;;;;;5063417;28;20287;-83
2022/12/17 20:20:44;;;;;;;9.20;8.90;;;-8.30;99.90;;;;;;5075662;28;20221;-82
2022/12/17 20:23:14;;;;;;;9.20;8.90;;;-8.40;99.90;;;;;;5066639;28;20259;-82
2022/12/17 20:25:44;;;;;;;9.60;9.30;;;-8.30;99.90;;;;;;5058088;28;20295;-81
2022/12/17 20:28:14;;;;;;;9.40;9.10;;;-8.20;99.90;;;;;;5060585;28;20226;-82
2022/12/17 20:30:44;;;;;;;9.40;9.10;;;-8.30;99.90;;;;;;5059582;28;20282;-82
2022/12/17 20:33:12;;;;;;;9.57;9.27;;;-8.20;99.90;;;;;;5060712;28;20245;-82
2022/12/17 20:35:40;;;;;;;9.80;9.50;;;-8.30;99.90;;;;;;5062669;28;20239;-81
2022/12/17 20:38:10;;;;;;;9.33;9.03;;;-8.40;99.90;;;;;;5060747;28;20226;-82
2022/12/17 20:40:40;;;;;;;9.60;9.30;;;-8.50;99.90;;;;;;5061978;28;20277;-82
2022/12/17 20:43:11;;;;;;;9.17;8.87;;;-8.50;99.90;;;;;;5063632;28;20253;-81
2022/12/17 20:45:51;;;;;;;9.40;9.10;;;-8.50;99.90;;;;;;5063675;28;20230;-82
2022/12/17 20:48:27;;;;;;;9.60;9.30;;;-8.50;99.90;;;;;;5064243;28;20234;-83
2022/12/17 20:50:55;;;;;;;9.60;9.30;;;-8.50;99.90;;;;;;5065403;28;20222;-83
2022/12/17 20:53:25;;;;;;;9.47;9.17;;;-8.60;99.90;;;;;;5064505;28;20226;-81
2022/12/17 20:56:04;;;;;;;9.50;9.20;;;-8.60;99.90;;;;;;5065473;28;20273;-81
2022/12/17 20:58:32;;;;;;;9.17;8.87;;;-8.60;99.90;;;;;;5074927;28;20197;-82
2022/12/17 21:01:09;;;;;;;9.47;9.17;;;-8.60;99.90;;;;;;5077824;28;20321;-83
2022/12/17 21:03:44;;;;;;;9.60;9.30;;;-8.60;99.90;;;;;;5076554;28;20223;-82
2022/12/17 21:06:18;;;;;;;9.07;8.77;;;-8.60;99.90;;;;;;5069084;28;20234;-81
2022/12/17 21:08:54;;;;;;;9.20;8.90;;;-8.60;99.90;;;;;;5062468;28;20231;-83
2022/12/17 21:11:25;;;;;;;9.60;9.30;;;-8.60;99.90;;;;;;5061746;28;20321;-82
2022/12/17 21:13:55;;;;;;;9.30;9.00;;;-8.60;99.90;;;;;;5060430;28;20233;-83
2022/12/17 21:16:35;;;;;;;9.57;9.27;;;-8.60;99.90;;;;;;5063259;28;20243;-82
2022/12/17 21:19:05;;;;;;;9.40;9.10;;;-8.60;99.90;;;;;;5064166;28;20215;-83
2022/12/17 21:21:35;;;;;;;9.53;9.23;;;-8.70;99.90;;;;;;5064507;28;20222;-83
2022/12/17 21:24:03;;;;;;;9.40;9.10;;;-8.70;99.90;;;;;;5065059;28;20294;-83
2022/12/17 21:26:33;;;;;;;9.40;9.10;;;-8.70;99.90;;;;;;5064236;28;20262;-83
2022/12/17 21:29:02;;;;;;;9.17;8.87;;;-8.70;99.90;;;;;;5063922;28;20227;-82
2022/12/17 21:31:42;;;;;;;9.50;9.20;;;-8.70;99.90;;;;;;5063821;28;20227;-82
2022/12/17 21:34:20;;;;;;;9.40;9.10;;;-8.80;99.90;;;;;;5063498;28;20234;-84
2022/12/17 21:36:53;;;;;;;9.97;9.67;;;-8.80;99.90;;;;;;5048641;28;20335;-83
2022/12/17 21:39:25;;;;;;;9.67;9.37;;;-8.80;99.90;;;;;;5061314;28;20227;-83
2022/12/17 21:44:41;;;;;;;9.40;9.10;;;-8.80;99.90;;;;;;5062655;28;20251;-83
2022/12/17 21:47:21;;;;;;;9.40;9.10;;;-8.80;99.90;;;;;;5063938;28;20310;-82
2022/12/17 21:49:49;;;;;;;9.50;9.20;;;-8.80;99.90;;;;;;5064108;28;20242;-84
2022/12/17 21:52:19;;;;;;;9.67;9.37;;;-8.90;99.90;;;;;;5064691;28;20235;-81
2022/12/17 21:54:56;;;;;;;9.70;9.40;;;-9.00;99.90;;;;;;5061248;28;20246;-82
2022/12/17 21:57:30;;;;;;;9.90;9.60;;;-9.10;99.90;;;;;;5045482;28;20274;-83
2022/12/17 21:59:57;;;;;;;9.37;9.07;;;-9.20;99.90;;;;;;5044425;28;20265;-82
2022/12/17 22:02:29;;;;;;;9.40;9.10;;;-9.30;99.90;;;;;;5047076;28;20254;-83
2022/12/17 22:05:07;;;;;;;9.50;9.20;;;-9.40;99.90;;;;;;5057720;28;20234;-83
2022/12/17 22:07:35;;;;;;;9.70;9.40;;;-9.50;99.90;;;;;;5064907;28;20227;-81
2022/12/17 22:10:04;;;;;;;9.67;9.37;;;-9.60;99.90;;;;;;5069086;28;20246;-83
2022/12/17 22:15:20;;;;;;;9.73;9.43;;;-9.70;99.90;;;;;;5059677;28;20223;-81
2022/12/17 22:17:59;;;;;;;10.03;9.73;;;-9.70;99.90;;;;;;5048016;28;20223;-83
2022/12/17 22:20:28;;;;;;;9.50;9.20;;;-9.70;99.90;;;;;;5047954;28;20227;-84
2022/12/17 22:22:57;;;;;;;9.53;9.23;;;-9.70;99.90;;;;;;5042859;28;20291;-82
2022/12/17 22:25:27;;;;;;;9.87;9.57;;;-9.60;99.90;;;;;;5042846;28;20231;-82
2022/12/17 22:27:55;;;;;;;9.43;9.13;;;-9.60;99.90;;;;;;5042350;28;20251;-82
2022/12/17 22:33:22;;;;;;;9.90;9.60;;;-9.70;99.90;;;;;;5044451;28;20307;-83
2022/12/17 22:35:50;;;;;;;9.63;9.33;;;-9.80;99.90;;;;;;5043832;28;20238;-83
2022/12/17 22:38:20;;;;;;;9.87;9.57;;;-9.80;99.90;;;;;;5045702;28;20242;-81
2022/12/17 22:40:49;;;;;;;9.53;9.23;;;-9.90;99.90;;;;;;5049501;28;20378;-82
2022/12/17 22:43:28;;;;;;;10.23;9.93;;;-9.90;99.90;;;;;;5064044;28;20281;-83
2022/12/17 22:46:00;;;;;;;10.07;9.77;;;-10.00;99.90;;;;;;5045130;28;20223;-82
2022/12/17 22:48:36;;;;;;;9.97;9.67;;;-10.10;99.90;;;;;;5045381;28;20254;-83
2022/12/17 22:51:16;;;;;;;9.47;9.17;;;-10.10;99.90;;;;;;5045646;28;20276;-83
2022/12/17 22:53:44;;;;;;;9.47;9.17;;;-10.00;99.90;;;;;;5045453;28;20297;-82
2022/12/17 22:56:13;;;;;;;9.60;9.30;;;-9.90;99.90;;;;;;5045170;28;20235;-83
2022/12/17 22:58:42;;;;;;;9.77;9.47;;;-10.00;99.90;;;;;;5045159;28;20234;-82
2022/12/17 23:01:11;;;;;;;9.60;9.30;;;-10.00;99.90;;;;;;5045287;28;20255;-82
2022/12/17 23:03:44;;;;;;;9.87;9.57;;;-10.10;99.90;;;;;;5045579;28;20270;-83
2022/12/17 23:06:19;;;;;;;10.07;9.77;;;-10.20;99.90;;;;;;5043874;28;20231;-83
2022/12/17 23:08:48;;;;;;;10.00;9.70;;;-10.20;99.90;;;;;;5044386;28;20250;-83
2022/12/17 23:11:20;;;;;;;9.80;9.50;;;-10.20;99.90;;;;;;5044539;28;20720;-83
2022/12/17 23:13:48;;;;;;;9.73;9.43;;;-10.20;99.90;;;;;;5044349;28;20242;-82
2022/12/17 23:16:17;;;;;;;9.87;9.57;;;-10.20;99.90;;;;;;5043383;28;20276;-84
2022/12/17 23:18:55;;;;;;;10.03;9.73;;;-10.30;99.90;;;;;;5043146;28;20239;-83
2022/12/17 23:21:25;;;;;;;9.70;9.40;;;-10.30;99.90;;;;;;5043100;28;20226;-82
2022/12/17 23:24:04;;;;;;;9.77;9.47;;;-10.30;99.90;;;;;;5062752;28;20230;-83
2022/12/17 23:26:34;;;;;;;9.70;9.40;;;-10.20;99.90;;;;;;5056194;28;20257;-83
2022/12/17 23:29:12;;;;;;;9.87;9.57;;;-10.10;99.90;;;;;;5067059;28;20241;-83
2022/12/17 23:31:40;;;;;;;9.43;9.13;;;-10.10;99.90;;;;;;5065194;28;20230;-82
2022/12/17 23:34:12;;;;;;;9.67;9.37;;;-10.10;99.90;;;;;;5065626;28;21118;-83
2022/12/17 23:36:50;;;;;;;9.73;9.43;;;-10.10;99.90;;;;;;5065750;28;20222;-82
2022/12/17 23:39:19;;;;;;;9.90;9.60;;;-10.20;99.90;;;;;;5064410;28;20235;-83
2022/12/17 23:41:46;;;;;;;10.10;9.80;;;-10.10;99.90;;;;;;5063627;28;20223;-83
2022/12/17 23:44:16;;;;;;;10.13;9.83;;;-10.10;99.90;;;;;;5063735;28;20237;-82
2022/12/17 23:46:45;;;;;;;10.07;9.77;;;-10.10;99.90;;;;;;5064449;28;20242;-83
2022/12/17 23:49:18;;;;;;;9.73;9.43;;;-10.10;99.90;;;;;;5063204;28;20238;-83
2022/12/17 23:51:45;;;;;;;9.87;9.57;;;-10.20;99.90;;;;;;5062566;28;20236;-82
2022/12/17 23:54:17;;;;;;;10.17;9.87;;;-10.30;99.90;;;;;;5062494;28;20304;-83
2022/12/17 23:56:45;;;;;;;10.17;9.87;;;-10.40;99.90;;;;;;5062849;28;20234;-83
2022/12/17 23:59:14;;;;;;;10.00;9.70;;;-10.50;99.90;;;;;;5054720;28;20257;-83
